• Join FlightAware (Why Join?)
  • Login
  • US Flag 
05:47PM EDT


 

Airport Tracker/Info


-or-


 

Live Flight TrackerFlight Track Log ✈ EJA941 ✈ 13-Jan-2014 ✈ KCID - KSUX

Flight Track Log - Related Links

Times and Time Zones

All times are in EST time to prevent confusion due to time zone crossing. See the EJA941 flight status page for this flight to view local times or setup timezone preferences in your user account.

Time Position Orientation Groundspeed Altitude Reporting Facility
EST Latitude Longitude Course Direction KTS MPH feet Rate Location/Type
05:34PM 41.9017 -91.8358 286° West 221 254 9,200  Level Chicago Center
05:35PM 41.9319 -91.9361 292° West 285 328 12,900 3,240 Climbing Chicago Center
05:36PM 41.9694 -92.0606 292° West 351 404 15,900 2,940 Climbing Chicago Center
05:37PM 42.0100 -92.1950 292° West 383 441 19,000 2,700 Climbing Chicago Center
05:38PM 41.9650 -92.3321 289° West  Level Estimated
05:38PM 42.0614 -92.3683 292° West 414 476 21,500  Level Chicago Center
05:39PM 42.1033 -92.5108 292° West 413 475 23,400 1,200 Climbing Chicago Center
05:40PM 42.1497 -92.6628 292° West 433 498 24,000 900 Climbing Chicago Center
05:41PM 42.1919 -92.8133 291° West 433 498 25,300 960 Climbing Chicago Center
05:42PM 42.2378 -92.9697 292° West 446 513 26,000 300 Climbing Chicago Center
05:43PM 42.2828 -93.1247 291° West 446 513 26,000  Level Chicago Center
05:44PM 42.3344 -93.3072 291° West 437 503 26,000  Level Chicago Center
05:45PM 42.3775 -93.4586 291° West 433 498 26,000  Level Chicago Center
05:46PM 42.3931 -93.6153 278° West 426 490 26,000  Level Chicago Center
05:47PM 42.3939 -93.7742 270° West 425 489 26,000  Level Chicago Center
05:48PM 42.3944 -93.9333 270° West 424 488 26,000  Level Chicago Center
05:49PM 42.3967 -94.0989 271° West 438 504 26,000  Level Chicago Center
05:50PM 42.3992 -94.3011 271° West 448 516 26,000  Level Chicago Center
05:51PM 42.4033 -94.5197 272° West 438 504 26,000  Level Minneapolis Center
05:52PM 42.4044 -94.6825 271° West 432 497 26,000  Level Minneapolis Center
05:53PM 42.4056 -94.8431 271° West 431 496 26,000 -660 Level Minneapolis Center
05:54PM 42.4056 -95.0058 270° West 433 498 24,700 -1,980 Descending Minneapolis Center
05:56PM 42.4058 -95.1664 270° West 431 496 22,000 -2,760 Descending Minneapolis Center
05:57PM 42.4064 -95.3228 270° West 420 483 19,100 -3,000 Descending Minneapolis Center
05:58PM 42.4064 -95.4700 270° West 403 464 15,900 -2,820 Descending Minneapolis Center
05:59PM 42.4069 -95.6078 270° West 383 441 13,400 -2,700 Descending Minneapolis Center
06:00PM 42.4089 -95.7511 271° West 341 392 10,400 -1,980 Descending Minneapolis Center
06:01PM 42.4103 -95.8561 271° West 306 352 9,400 -1,320 Descending Minneapolis Center
06:02PM 42.4117 -95.9392 271° West 256 295 7,800 -1,620 Descending Minneapolis Center
06:03PM 42.4167 -96.0311 274° West 244 281 6,100 -1,380 Descending Minneapolis Center
06:04PM 42.4253 -96.1231 277° West 245 282 5,000 -840 Descending Minneapolis Center
06:05PM 42.4328 -96.2047 277° West 239 275 4,500 -1,080 Descending Minneapolis Center
06:06PM 42.4411 -96.2797 279° West 223 257 2,800 -960 Descending Minneapolis Center
06:07PM 42.4531 -96.3631 281° West 216 249 2,600 -240 Descending Minneapolis Center
06:09PM 42.4000 -96.3833 270° West  Level FlightAware Approximate
06:16PM 42.4026 -96.3844 270° West  Level Estimated
06:17PM 42.4000 -96.3833 270° West  Level FlightAware Approximate